Portada
METAR-TAF:

METAR-TAF

Aeroports :

Northolt, Anglaterra

latitud: 51-33N, longitud: 000-25W, altitud: 38 m

Observació

L'informe es va fer fa 1 hora i 7 minuts, a les 21:50 UTC
Vent 9 kt del Est
Temperatura 15°C
Humitat 31%
Pressió 1025 hPa
Visibilitat 10 km o més

METAR: EGWU 292150Z AUTO 09009KT 9999 // NCD 15/M02 Q1025

Hora: 23:57 (22:57 UTC)

Pronòstic

L'informe es va fer fa 3 hores i 37 minuts, a les 19:20 UTC
Pronòstic vàlid del 29 a les 21 UTC al 30 a les 15 UTC
Vent 8 kt del Est
Visibilitat 10 km o més
sense núvols per sota de 1500 mi sense presència de cumulonimbus.

TAF: EGWU 291920Z 2921/3015 10008KT CAVOK

Observacions i pronòstics meteorològics de més de 4000 aeroports (METAR i TAF).

Les estacions disponibles són els punts grocs i vermells al mapa.

Posi el ratolí al punt desitjat per veure el nom de l'estació.

Feu clic per veure les observacions i els pronòstics meteorològics.

Per canviar el mapa: feu clic els botons verds amb una creu de color negre per apropar; al botó verd amb un guió per allunyar la imatge; o en les fletxes verdes per a mapes adjacents.


METAR-TAF: